createdAt,value
2022-11-08T00:02:23.305Z,11.86
2022-11-08T00:04:49.821Z,11.83
2022-11-08T00:07:34.741Z,11.80
2022-11-08T00:10:19.518Z,11.66
2022-11-08T00:13:04.298Z,11.69
2022-11-08T00:15:33.414Z,11.77
2022-11-08T00:17:59.878Z,11.75
2022-11-08T00:20:26.344Z,11.75
2022-11-08T00:22:52.812Z,11.72
2022-11-08T00:25:19.187Z,11.71
2022-11-08T00:27:45.527Z,11.65
2022-11-08T00:30:12.076Z,11.69
2022-11-08T00:32:38.421Z,11.68
2022-11-08T00:35:05.239Z,11.66
2022-11-08T00:37:31.602Z,11.66
2022-11-08T00:39:57.946Z,11.64
2022-11-08T00:42:24.390Z,11.63
2022-11-08T00:44:50.803Z,11.64
2022-11-08T00:47:17.141Z,11.60
2022-11-08T00:49:43.511Z,11.58
2022-11-08T00:52:09.890Z,11.56
2022-11-08T00:54:36.249Z,11.59
2022-11-08T00:57:02.738Z,11.55
2022-11-08T00:59:29.132Z,11.53
2022-11-08T01:01:55.547Z,11.53
2022-11-08T01:04:22.009Z,11.53
2022-11-08T01:06:48.371Z,11.52
2022-11-08T01:09:14.788Z,11.51
2022-11-08T01:11:46.262Z,11.51
2022-11-08T01:14:14.315Z,11.51
2022-11-08T01:16:41.369Z,11.48
2022-11-08T01:19:07.910Z,11.46
2022-11-08T01:21:34.828Z,11.47
2022-11-08T01:24:01.392Z,11.44
2022-11-08T01:26:29.146Z,11.44
2022-11-08T01:28:56.366Z,11.43
2022-11-08T01:31:25.824Z,11.43
2022-11-08T01:33:52.982Z,11.33
2022-11-08T01:36:25.906Z,11.42
2022-11-08T01:38:52.906Z,11.40
2022-11-08T01:41:21.677Z,11.44
2022-11-08T01:43:50.426Z,11.47
2022-11-08T01:46:19.754Z,11.46
2022-11-08T01:48:55.111Z,11.48
2022-11-08T01:51:29.189Z,11.36
2022-11-08T01:53:57.509Z,11.44
2022-11-08T01:56:24.479Z,11.46
2022-11-08T01:58:54.419Z,11.42
2022-11-08T02:01:20.973Z,11.45
2022-11-08T02:03:47.576Z,11.41
2022-11-08T02:06:14.723Z,11.40
2022-11-08T02:08:43.353Z,11.39
2022-11-08T02:11:13.247Z,11.29
2022-11-08T02:13:40.687Z,11.34
2022-11-08T02:16:16.698Z,11.31
2022-11-08T02:18:45.478Z,11.27
2022-11-08T02:21:19.997Z,11.19
2022-11-08T02:23:47.805Z,11.13
2022-11-08T02:26:16.358Z,11.10
2022-11-08T02:28:45.166Z,11.11
2022-11-08T02:31:13.139Z,11.11
2022-11-08T02:33:40.401Z,11.06
2022-11-08T02:36:07.838Z,10.98
2022-11-08T02:38:38.587Z,10.92
2022-11-08T02:41:05.057Z,10.85
2022-11-08T02:43:31.416Z,10.78
2022-11-08T02:45:58.641Z,10.66
2022-11-08T02:48:25.213Z,10.51
2022-11-08T02:50:52.273Z,10.47
2022-11-08T02:53:19.001Z,10.38
2022-11-08T02:55:45.657Z,10.26
2022-11-08T02:58:12.908Z,10.35
2022-11-08T03:00:39.497Z,10.33
2022-11-08T03:03:06.045Z,10.30
2022-11-08T03:05:32.673Z,10.19
2022-11-08T03:07:59.229Z,10.07
2022-11-08T03:10:27.343Z,10.04
2022-11-08T03:13:01.926Z,9.91
2022-11-08T03:15:28.997Z,9.99
2022-11-08T03:17:56.802Z,10.03
2022-11-08T03:20:24.587Z,10.06
2022-11-08T03:23:01.840Z,10.00
2022-11-08T03:25:28.512Z,10.08
2022-11-08T03:27:54.992Z,10.14
2022-11-08T03:30:21.989Z,10.12
2022-11-08T03:32:49.859Z,10.12
2022-11-08T03:35:16.839Z,10.12
2022-11-08T03:37:50.507Z,10.15
2022-11-08T03:40:18.919Z,10.15
2022-11-08T03:42:46.053Z,10.13
2022-11-08T03:45:13.187Z,10.08
2022-11-08T03:47:41.063Z,10.10
2022-11-08T03:50:07.992Z,10.11
2022-11-08T03:52:45.260Z,10.11
2022-11-08T03:55:12.556Z,10.08
2022-11-08T03:57:43.681Z,10.10
2022-11-08T04:00:11.562Z,10.09
2022-11-08T04:02:38.727Z,10.07
2022-11-08T04:05:06.156Z,10.10
2022-11-08T04:07:32.942Z,10.09
2022-11-08T04:09:59.300Z,10.10
2022-11-08T04:12:44.331Z,10.10
2022-11-08T04:15:16.117Z,10.12
2022-11-08T04:18:02.653Z,10.08
2022-11-08T04:20:48.016Z,10.10
2022-11-08T04:23:15.591Z,10.08
2022-11-08T04:25:42.599Z,10.08
2022-11-08T04:28:09.516Z,10.06
2022-11-08T04:30:36.250Z,10.03
2022-11-08T04:33:04.608Z,10.13
2022-11-08T04:35:31.882Z,10.12
2022-11-08T04:38:02.056Z,10.11
2022-11-08T04:40:30.401Z,9.97
2022-11-08T04:42:57.823Z,10.02
2022-11-08T04:45:24.290Z,10.01
2022-11-08T04:47:50.627Z,9.96
2022-11-08T04:50:17.080Z,9.95
2022-11-08T04:52:43.748Z,9.95
2022-11-08T04:55:10.308Z,9.91
2022-11-08T04:57:36.722Z,9.95
2022-11-08T05:00:04.288Z,9.91
2022-11-08T05:02:30.776Z,9.87
2022-11-08T05:04:57.822Z,9.86
2022-11-08T05:07:24.447Z,9.84
2022-11-08T05:09:50.840Z,9.89
2022-11-08T05:12:17.262Z,9.85
2022-11-08T05:14:43.616Z,9.80
2022-11-08T05:17:09.989Z,9.82
2022-11-08T05:19:54.990Z,9.81
2022-11-08T05:22:39.870Z,9.85
2022-11-08T05:25:06.690Z,9.88
2022-11-08T05:27:34.130Z,9.86
2022-11-08T05:30:00.872Z,9.82
2022-11-08T05:32:27.249Z,9.87
2022-11-08T05:34:53.614Z,9.90
2022-11-08T05:37:19.968Z,9.90
2022-11-08T05:39:46.316Z,9.94
2022-11-08T05:42:12.679Z,9.96
2022-11-08T05:44:39.051Z,9.96
2022-11-08T05:47:05.484Z,9.93
2022-11-08T05:49:31.871Z,9.93
2022-11-08T05:51:58.509Z,9.94
2022-11-08T05:54:24.884Z,9.98
2022-11-08T05:56:51.362Z,9.97
2022-11-08T05:59:17.774Z,9.96
2022-11-08T06:01:44.186Z,9.96
2022-11-08T06:04:10.748Z,9.97
2022-11-08T06:06:37.103Z,9.94
2022-11-08T06:09:03.564Z,9.98
2022-11-08T06:11:29.960Z,9.97
2022-11-08T06:13:56.408Z,9.97
2022-11-08T06:16:24.350Z,9.99
2022-11-08T06:18:51.197Z,9.98
2022-11-08T06:21:20.384Z,10.00
2022-11-08T06:23:46.971Z,10.00
2022-11-08T06:26:14.109Z,10.02
2022-11-08T06:28:40.548Z,9.96
2022-11-08T06:31:08.105Z,9.99
2022-11-08T06:33:35.198Z,9.99
2022-11-08T06:36:01.657Z,10.04
2022-11-08T06:38:28.488Z,10.02
2022-11-08T06:40:55.022Z,10.03
2022-11-08T06:43:21.836Z,10.03
2022-11-08T06:45:48.641Z,10.04
2022-11-08T06:48:15.131Z,10.06
2022-11-08T06:50:43.502Z,10.13
2022-11-08T06:53:12.939Z,10.19
2022-11-08T06:55:39.787Z,10.21
2022-11-08T06:58:06.510Z,10.25
2022-11-08T07:00:32.912Z,10.20
2022-11-08T07:03:01.123Z,10.20
2022-11-08T07:05:29.234Z,10.20
2022-11-08T07:07:59.992Z,10.18
2022-11-08T07:10:30.238Z,10.18
2022-11-08T07:13:08.161Z,10.20
2022-11-08T07:15:37.352Z,10.22
2022-11-08T07:18:09.810Z,10.30
2022-11-08T07:20:36.962Z,10.36
2022-11-08T07:23:05.692Z,10.45
2022-11-08T07:25:32.236Z,10.54
2022-11-08T07:28:00.600Z,10.50
2022-11-08T07:30:27.791Z,10.55
2022-11-08T07:32:55.818Z,10.59
2022-11-08T07:35:22.544Z,10.61
2022-11-08T07:37:49.058Z,10.62
2022-11-08T07:40:15.552Z,10.64
2022-11-08T07:43:10.247Z,10.69
2022-11-08T07:45:29.244Z,10.66
2022-11-08T07:48:09.479Z,10.65
2022-11-08T07:50:37.825Z,10.68
2022-11-08T07:53:05.264Z,10.72
2022-11-08T07:55:31.706Z,10.73
2022-11-08T07:58:02.147Z,10.78
2022-11-08T08:00:29.839Z,10.74
2022-11-08T08:03:00.338Z,10.78
2022-11-08T08:05:28.435Z,10.83
2022-11-08T08:07:59.185Z,10.82
2022-11-08T08:10:28.067Z,10.84
2022-11-08T08:12:55.683Z,10.84
2022-11-08T08:15:22.356Z,10.85
2022-11-08T08:17:49.053Z,10.87
2022-11-08T08:20:15.709Z,10.83
2022-11-08T08:22:51.119Z,10.85
2022-11-08T08:25:18.457Z,10.85
2022-11-08T08:27:53.183Z,10.82
2022-11-08T08:30:20.134Z,10.80
2022-11-08T08:32:53.499Z,10.85
2022-11-08T08:35:24.268Z,10.86
2022-11-08T08:37:50.710Z,10.91
2022-11-08T08:40:17.098Z,10.98
2022-11-08T08:42:43.492Z,11.02
2022-11-08T08:45:14.658Z,11.05
2022-11-08T08:47:41.613Z,10.99
2022-11-08T08:50:08.353Z,11.10
2022-11-08T08:52:34.753Z,11.10
2022-11-08T08:55:01.139Z,11.17
2022-11-08T08:57:27.624Z,11.26
2022-11-08T09:02:42.444Z,11.13
2022-11-08T09:05:10.365Z,11.20
2022-11-08T09:07:36.784Z,11.12
2022-11-08T09:10:05.053Z,11.22
2022-11-08T09:12:31.886Z,11.24
2022-11-08T09:14:58.298Z,11.17
2022-11-08T09:17:24.933Z,11.22
2022-11-08T09:19:56.813Z,11.27
2022-11-08T09:22:23.661Z,11.23
2022-11-08T09:24:50.088Z,11.21
2022-11-08T09:27:16.596Z,11.27
2022-11-08T09:29:42.973Z,11.30
2022-11-08T09:32:09.376Z,11.23
2022-11-08T09:34:35.767Z,11.29
2022-11-08T09:37:02.199Z,11.37
2022-11-08T09:39:28.571Z,11.38
2022-11-08T09:42:02.055Z,11.41
2022-11-08T09:44:45.131Z,11.52
2022-11-08T09:47:33.518Z,11.56
2022-11-08T09:50:12.481Z,11.66
2022-11-08T09:52:41.633Z,11.67
2022-11-08T09:55:40.576Z,11.63
2022-11-08T09:58:28.029Z,11.72
2022-11-08T10:00:54.737Z,11.68
2022-11-08T10:03:24.653Z,11.79
2022-11-08T10:05:59.727Z,11.63
2022-11-08T10:08:33.995Z,11.63
2022-11-08T10:11:09.199Z,11.67
2022-11-08T10:14:11.159Z,11.67
2022-11-08T10:16:47.487Z,11.68
2022-11-08T10:19:53.331Z,11.79
2022-11-08T10:22:32.517Z,11.80
2022-11-08T10:25:09.391Z,11.91
2022-11-08T10:27:40.957Z,11.94
2022-11-08T10:30:18.149Z,12.02
2022-11-08T10:32:50.413Z,11.97
2022-11-08T10:35:25.066Z,12.05
2022-11-08T10:37:56.083Z,11.97
2022-11-08T10:40:44.159Z,12.04
2022-11-08T10:43:16.760Z,12.20
2022-11-08T10:45:43.238Z,12.17
2022-11-08T10:48:11.855Z,12.07
2022-11-08T10:50:48.044Z,12.04
2022-11-08T10:53:32.865Z,11.91
2022-11-08T10:56:01.607Z,12.01
2022-11-08T10:58:31.473Z,12.41
2022-11-08T11:01:23.320Z,12.34
2022-11-08T11:03:51.988Z,12.88
2022-11-08T11:06:33.345Z,13.08
2022-11-08T11:09:03.201Z,13.27
2022-11-08T11:11:32.371Z,13.64
2022-11-08T11:14:19.428Z,13.62
2022-11-08T11:16:58.292Z,13.64
2022-11-08T11:19:29.521Z,13.83
2022-11-08T11:22:01.718Z,13.86
2022-11-08T11:24:28.409Z,14.06
2022-11-08T11:26:57.521Z,14.35
2022-11-08T11:29:29.747Z,14.44
2022-11-08T11:31:56.652Z,14.50
2022-11-08T11:34:28.731Z,14.54
2022-11-08T11:37:01.856Z,14.39
2022-11-08T11:40:05.617Z,14.65
2022-11-08T11:42:46.102Z,14.77
2022-11-08T11:45:36.885Z,14.87
2022-11-08T11:48:13.289Z,14.69
2022-11-08T11:50:44.369Z,14.63
2022-11-08T11:53:33.839Z,14.93
2022-11-08T11:56:18.421Z,14.83
2022-11-08T11:58:51.058Z,14.22
2022-11-08T12:01:46.070Z,13.90
2022-11-08T12:04:31.009Z,13.75
2022-11-08T12:07:05.450Z,13.56
2022-11-08T12:09:53.827Z,13.35
2022-11-08T12:12:31.457Z,13.59
2022-11-08T12:15:23.886Z,13.58
2022-11-08T12:18:42.637Z,13.62
2022-11-08T12:21:12.421Z,13.56
2022-11-08T12:23:54.756Z,13.50
2022-11-08T12:26:32.608Z,13.32
2022-11-08T12:29:14.919Z,13.30
2022-11-08T12:31:49.228Z,13.26
2022-11-08T12:34:28.732Z,13.24
2022-11-08T12:37:04.818Z,13.21
2022-11-08T12:39:34.916Z,13.13
2022-11-08T12:42:26.077Z,13.17
2022-11-08T12:45:16.242Z,13.05
2022-11-08T12:47:45.626Z,13.11
2022-11-08T12:50:21.069Z,13.13
2022-11-08T12:53:07.556Z,13.05
2022-11-08T12:55:40.140Z,13.10
2022-11-08T12:58:24.594Z,13.17
2022-11-08T13:00:54.531Z,13.13
2022-11-08T13:03:37.360Z,13.15
2022-11-08T13:06:24.366Z,13.18
2022-11-08T13:09:20.265Z,13.28
2022-11-08T13:12:12.456Z,13.32
2022-11-08T13:14:41.451Z,13.30
2022-11-08T13:17:22.970Z,13.31
2022-11-08T13:19:52.056Z,13.30
2022-11-08T13:22:33.706Z,13.32
2022-11-08T13:25:27.201Z,13.23
2022-11-08T13:27:54.347Z,13.14
2022-11-08T13:30:20.671Z,13.23
2022-11-08T13:32:54.955Z,13.22
2022-11-08T13:35:35.580Z,13.25
2022-11-08T13:38:31.590Z,13.24
2022-11-08T13:41:21.024Z,13.22
2022-11-08T13:43:49.223Z,13.14
2022-11-08T13:46:28.032Z,13.25
2022-11-08T13:49:05.073Z,13.21
2022-11-08T13:51:38.960Z,13.25
2022-11-08T13:54:30.994Z,13.34
2022-11-08T13:57:02.563Z,13.26
2022-11-08T13:59:31.996Z,13.24
2022-11-08T14:01:59.237Z,13.28
2022-11-08T14:04:28.091Z,13.25
2022-11-08T14:07:19.566Z,13.27
2022-11-08T14:10:26.861Z,13.30
2022-11-08T14:13:19.663Z,13.32
2022-11-08T14:15:55.452Z,13.28
2022-11-08T14:18:27.546Z,13.35
2022-11-08T14:20:55.162Z,13.29
2022-11-08T14:23:39.162Z,13.34
2022-11-08T14:26:21.543Z,13.37
2022-11-08T14:28:49.880Z,13.31
2022-11-08T14:31:31.882Z,13.28
2022-11-08T14:34:00.307Z,13.21
2022-11-08T14:36:29.522Z,13.18
2022-11-08T14:38:58.810Z,13.21
2022-11-08T14:41:27.891Z,13.17
2022-11-08T14:43:57.058Z,13.14
2022-11-08T14:46:43.779Z,13.18
2022-11-08T14:49:20.219Z,13.20
2022-11-08T14:51:46.924Z,13.12
2022-11-08T14:54:27.112Z,13.14
2022-11-08T14:56:54.822Z,13.09
2022-11-08T14:59:23.784Z,13.09
2022-11-08T15:01:50.819Z,13.23
2022-11-08T15:04:20.824Z,13.18
2022-11-08T15:06:51.629Z,13.23
2022-11-08T15:09:24.026Z,13.20
2022-11-08T15:11:54.353Z,13.27
2022-11-08T15:14:24.028Z,13.08
2022-11-08T15:16:55.318Z,13.20
2022-11-08T15:19:29.505Z,13.23
2022-11-08T15:21:57.217Z,13.22
2022-11-08T15:24:40.698Z,13.23
2022-11-08T15:27:09.886Z,13.22
2022-11-08T15:30:00.510Z,13.22
2022-11-08T15:32:28.597Z,13.20
2022-11-08T15:34:56.588Z,13.15
2022-11-08T15:37:36.675Z,12.92
2022-11-08T15:40:06.046Z,13.04
2022-11-08T15:42:34.800Z,13.05
2022-11-08T15:45:05.405Z,13.10
2022-11-08T15:47:38.682Z,13.13
2022-11-08T15:50:24.882Z,13.17
2022-11-08T15:52:55.374Z,13.19
2022-11-08T15:55:31.233Z,13.17
2022-11-08T15:58:00.827Z,13.12
2022-11-08T16:00:31.595Z,13.14
2022-11-08T16:02:58.794Z,13.14
2022-11-08T16:05:31.853Z,13.14
2022-11-08T16:07:58.397Z,12.88
2022-11-08T16:10:30.777Z,13.13
2022-11-08T16:13:00.800Z,13.13
2022-11-08T16:15:34.151Z,13.09
2022-11-08T16:18:02.205Z,13.04
2022-11-08T16:20:34.073Z,13.02
2022-11-08T16:23:02.863Z,12.99
2022-11-08T16:25:33.901Z,12.96
2022-11-08T16:28:08.358Z,12.85
2022-11-08T16:30:35.461Z,12.96
2022-11-08T16:33:02.739Z,12.96
2022-11-08T16:35:29.181Z,12.92
2022-11-08T16:37:55.593Z,12.94
2022-11-08T16:40:24.261Z,12.92
2022-11-08T16:42:52.936Z,12.94
2022-11-08T16:45:43.340Z,12.92
2022-11-08T16:48:16.363Z,12.89
2022-11-08T16:50:43.561Z,12.89
2022-11-08T16:53:21.500Z,12.86
2022-11-08T16:55:48.002Z,12.81
2022-11-08T16:58:14.500Z,12.85
2022-11-08T17:00:42.643Z,12.83
2022-11-08T17:03:16.606Z,12.86
2022-11-08T17:05:43.106Z,12.79
2022-11-08T17:08:09.459Z,12.80
2022-11-08T17:10:37.113Z,12.83
2022-11-08T17:13:03.566Z,12.80
2022-11-08T17:15:29.966Z,12.81
2022-11-08T17:17:58.396Z,12.88
2022-11-08T17:20:25.957Z,12.86
2022-11-08T17:22:52.459Z,12.82
2022-11-08T17:25:21.350Z,12.82
2022-11-08T17:27:49.954Z,12.66
2022-11-08T17:30:20.166Z,12.75
2022-11-08T17:32:48.865Z,12.75
2022-11-08T17:35:15.451Z,12.71
2022-11-08T17:37:41.827Z,12.75
2022-11-08T17:40:09.336Z,12.77
2022-11-08T17:42:38.302Z,12.75
2022-11-08T17:45:09.535Z,12.74
2022-11-08T17:47:36.806Z,12.76
2022-11-08T17:50:03.938Z,12.72
2022-11-08T17:52:30.360Z,12.75
2022-11-08T17:54:56.820Z,12.75
2022-11-08T17:57:23.288Z,12.77
2022-11-08T17:59:50.437Z,12.78
2022-11-08T18:02:17.360Z,12.75
2022-11-08T18:04:43.891Z,12.85
2022-11-08T18:07:10.383Z,12.88
2022-11-08T18:09:36.786Z,12.86
2022-11-08T18:12:03.368Z,12.88
2022-11-08T18:14:29.918Z,12.87
2022-11-08T18:16:56.827Z,12.84
2022-11-08T18:19:23.530Z,12.76
2022-11-08T18:21:50.244Z,12.71
2022-11-08T18:24:16.897Z,12.74
2022-11-08T18:26:43.290Z,12.76
2022-11-08T18:29:09.706Z,12.76
2022-11-08T18:31:36.810Z,12.73
2022-11-08T18:34:03.261Z,12.71
2022-11-08T18:36:31.186Z,12.72
2022-11-08T18:39:01.414Z,12.78
2022-11-08T18:41:30.961Z,12.87
2022-11-08T18:43:59.301Z,12.87
2022-11-08T18:46:28.348Z,12.84
2022-11-08T18:48:55.328Z,12.85
2022-11-08T18:51:22.898Z,12.78
2022-11-08T18:53:50.023Z,12.87
2022-11-08T18:56:16.652Z,12.85
2022-11-08T18:58:44.786Z,12.80
2022-11-08T19:01:11.777Z,12.73
2022-11-08T19:03:38.613Z,12.67
2022-11-08T19:06:06.512Z,12.70
2022-11-08T19:08:33.493Z,12.77
2022-11-08T19:11:06.423Z,12.75
2022-11-08T19:13:34.404Z,12.77
2022-11-08T19:16:05.537Z,12.79
2022-11-08T19:18:33.436Z,12.78
2022-11-08T19:21:05.616Z,12.80
2022-11-08T19:23:33.049Z,12.83
2022-11-08T19:26:05.476Z,12.90
2022-11-08T19:28:34.997Z,12.96
2022-11-08T19:31:01.637Z,12.89
2022-11-08T19:33:30.450Z,12.87
2022-11-08T19:36:08.294Z,12.80
2022-11-08T19:38:36.469Z,12.66
2022-11-08T19:41:08.834Z,12.42
2022-11-08T19:43:37.269Z,12.12
2022-11-08T19:46:05.766Z,11.99
2022-11-08T19:48:35.808Z,11.81
2022-11-08T19:51:04.063Z,11.71
2022-11-08T19:53:30.827Z,11.63
2022-11-08T19:56:01.521Z,11.57
2022-11-08T19:58:28.409Z,11.49
2022-11-08T20:00:55.303Z,11.46
2022-11-08T20:03:21.889Z,11.41
2022-11-08T20:05:52.459Z,11.38
2022-11-08T20:08:19.998Z,11.38
2022-11-08T20:10:47.140Z,11.31
2022-11-08T20:13:13.603Z,11.17
2022-11-08T20:15:40.169Z,11.23
2022-11-08T20:18:06.711Z,11.21
2022-11-08T20:20:33.150Z,11.27
2022-11-08T20:22:59.575Z,11.17
2022-11-08T20:25:26.123Z,11.23
2022-11-08T20:27:52.506Z,11.24
2022-11-08T20:30:19.031Z,11.23
2022-11-08T20:32:45.466Z,11.16
2022-11-08T20:35:11.837Z,11.12
2022-11-08T20:37:38.229Z,11.11
2022-11-08T20:40:05.134Z,11.15
2022-11-08T20:42:31.540Z,11.09
2022-11-08T20:44:57.990Z,11.15
2022-11-08T20:47:24.401Z,11.20
2022-11-08T20:49:50.820Z,11.18
2022-11-08T20:52:22.078Z,11.18
2022-11-08T20:54:49.639Z,11.20
2022-11-08T20:57:16.105Z,11.17
2022-11-08T20:59:42.486Z,11.24
2022-11-08T21:02:11.570Z,11.23
2022-11-08T21:04:38.366Z,11.15
2022-11-08T21:08:00.741Z,11.25
2022-11-08T21:09:59.087Z,11.27
2022-11-08T21:12:38.205Z,11.29
2022-11-08T21:15:04.918Z,11.29
2022-11-08T21:17:31.378Z,11.29
2022-11-08T21:19:57.746Z,11.30
2022-11-08T21:22:24.140Z,11.26
2022-11-08T21:24:50.563Z,11.28
2022-11-08T21:27:17.366Z,11.20
2022-11-08T21:29:43.842Z,11.27
2022-11-08T21:32:10.232Z,11.30
2022-11-08T21:34:36.700Z,11.27
2022-11-08T21:37:03.279Z,11.28
2022-11-08T21:39:29.726Z,11.21
2022-11-08T21:41:56.095Z,11.22
2022-11-08T21:44:22.529Z,11.19
2022-11-08T21:46:48.970Z,11.21
2022-11-08T21:49:16.442Z,11.20
2022-11-08T21:51:42.915Z,11.16
2022-11-08T21:54:09.341Z,11.17
2022-11-08T21:56:35.791Z,11.17
2022-11-08T21:59:03.346Z,11.16
2022-11-08T22:01:31.020Z,11.13
2022-11-08T22:03:59.244Z,11.11
2022-11-08T22:06:26.745Z,11.11
2022-11-08T22:08:53.443Z,11.10
2022-11-08T22:11:19.966Z,11.09
2022-11-08T22:13:46.418Z,11.11
2022-11-08T22:16:13.861Z,11.04
2022-11-08T22:19:03.679Z,11.02
2022-11-08T22:21:39.331Z,10.97
2022-11-08T22:24:10.489Z,10.98
2022-11-08T22:26:37.190Z,11.00
2022-11-08T22:29:03.854Z,11.00
2022-11-08T22:31:31.117Z,11.00
2022-11-08T22:33:57.900Z,11.06
2022-11-08T22:36:24.388Z,11.15
2022-11-08T22:38:50.853Z,11.18
2022-11-08T22:41:19.471Z,11.29
2022-11-08T22:43:46.618Z,11.34
2022-11-08T22:46:14.101Z,11.40
2022-11-08T22:48:40.898Z,11.41
2022-11-08T22:51:07.521Z,11.46
2022-11-08T22:53:34.231Z,11.46
2022-11-08T22:56:00.948Z,11.44
2022-11-08T22:58:28.486Z,11.44
2022-11-08T23:00:54.962Z,11.51
2022-11-08T23:03:21.541Z,11.50
2022-11-08T23:05:49.903Z,11.48
2022-11-08T23:08:17.185Z,11.51
2022-11-08T23:11:02.278Z,11.56
2022-11-08T23:13:47.637Z,11.60
2022-11-08T23:16:33.563Z,11.56
2022-11-08T23:19:20.050Z,11.58
2022-11-08T23:22:06.104Z,11.55
2022-11-08T23:24:32.994Z,11.55
2022-11-08T23:27:19.644Z,11.57
2022-11-08T23:30:04.908Z,11.59
2022-11-08T23:32:31.696Z,11.59
2022-11-08T23:34:58.335Z,11.58
2022-11-08T23:37:24.846Z,11.54
2022-11-08T23:40:09.658Z,11.54
2022-11-08T23:42:54.584Z,11.49
2022-11-08T23:45:21.031Z,11.49
2022-11-08T23:47:47.580Z,11.45
2022-11-08T23:50:14.180Z,11.42
2022-11-08T23:52:40.566Z,11.37
2022-11-08T23:55:07.475Z,11.39
2022-11-08T23:57:33.864Z,11.35
